sensor_id;sensor_type;location;lat;lon;timestamp;P1;durP1;ratioP1;P2;durP2;ratioP2
12122;SDS011;6125;59.628;17.852;2023-02-02T00:01:30;2.13;;;1.60;;
12122;SDS011;6125;59.628;17.852;2023-02-02T00:03:59;2.10;;;1.70;;
12122;SDS011;6125;59.628;17.852;2023-02-02T00:06:26;1.80;;;1.47;;
12122;SDS011;6125;59.628;17.852;2023-02-02T00:08:58;4.37;;;1.30;;
12122;SDS011;6125;59.628;17.852;2023-02-02T00:11:26;2.57;;;1.20;;
12122;SDS011;6125;59.628;17.852;2023-02-02T00:13:57;2.33;;;1.73;;
12122;SDS011;6125;59.628;17.852;2023-02-02T00:16:36;2.30;;;1.63;;
12122;SDS011;6125;59.628;17.852;2023-02-02T00:19:05;2.60;;;1.53;;
12122;SDS011;6125;59.628;17.852;2023-02-02T00:21:33;6.97;;;2.27;;
12122;SDS011;6125;59.628;17.852;2023-02-02T00:24:02;3.00;;;1.43;;
12122;SDS011;6125;59.628;17.852;2023-02-02T00:26:31;6.47;;;1.50;;
12122;SDS011;6125;59.628;17.852;2023-02-02T00:29:01;3.57;;;1.80;;
12122;SDS011;6125;59.628;17.852;2023-02-02T00:31:29;2.40;;;1.37;;
12122;SDS011;6125;59.628;17.852;2023-02-02T00:33:56;1.93;;;1.50;;
12122;SDS011;6125;59.628;17.852;2023-02-02T00:36:24;2.40;;;1.47;;
12122;SDS011;6125;59.628;17.852;2023-02-02T00:38:51;2.67;;;1.43;;
12122;SDS011;6125;59.628;17.852;2023-02-02T00:41:19;2.37;;;1.47;;
12122;SDS011;6125;59.628;17.852;2023-02-02T00:44:00;4.90;;;1.77;;
12122;SDS011;6125;59.628;17.852;2023-02-02T00:46:48;2.10;;;1.20;;
12122;SDS011;6125;59.628;17.852;2023-02-02T00:49:15;1.57;;;1.20;;
12122;SDS011;6125;59.628;17.852;2023-02-02T00:51:42;2.00;;;1.37;;
12122;SDS011;6125;59.628;17.852;2023-02-02T00:54:09;1.53;;;1.20;;
12122;SDS011;6125;59.628;17.852;2023-02-02T00:56:39;1.00;;;0.90;;
12122;SDS011;6125;59.628;17.852;2023-02-02T00:59:09;1.50;;;1.30;;
12122;SDS011;6125;59.628;17.852;2023-02-02T01:01:36;1.50;;;1.00;;
12122;SDS011;6125;59.628;17.852;2023-02-02T01:04:04;1.33;;;0.90;;
12122;SDS011;6125;59.628;17.852;2023-02-02T01:06:32;1.60;;;1.30;;
12122;SDS011;6125;59.628;17.852;2023-02-02T01:08:59;1.20;;;1.10;;
12122;SDS011;6125;59.628;17.852;2023-02-02T01:11:28;1.63;;;1.10;;
12122;SDS011;6125;59.628;17.852;2023-02-02T01:13:56;1.97;;;1.00;;
12122;SDS011;6125;59.628;17.852;2023-02-02T01:16:24;0.97;;;0.97;;
12122;SDS011;6125;59.628;17.852;2023-02-02T01:18:53;1.23;;;1.10;;
12122;SDS011;6125;59.628;17.852;2023-02-02T01:21:20;1.10;;;0.93;;
12122;SDS011;6125;59.628;17.852;2023-02-02T01:23:48;1.10;;;0.80;;
12122;SDS011;6125;59.628;17.852;2023-02-02T01:26:17;1.63;;;0.80;;
12122;SDS011;6125;59.628;17.852;2023-02-02T01:28:51;1.37;;;1.03;;
12122;SDS011;6125;59.628;17.852;2023-02-02T01:31:21;1.70;;;1.10;;
12122;SDS011;6125;59.628;17.852;2023-02-02T01:33:50;1.03;;;0.90;;
12122;SDS011;6125;59.628;17.852;2023-02-02T01:36:18;1.83;;;1.00;;
12122;SDS011;6125;59.628;17.852;2023-02-02T01:38:46;2.40;;;0.80;;
12122;SDS011;6125;59.628;17.852;2023-02-02T01:41:15;0.93;;;0.60;;
12122;SDS011;6125;59.628;17.852;2023-02-02T01:43:50;0.70;;;0.63;;
12122;SDS011;6125;59.628;17.852;2023-02-02T01:46:24;0.30;;;0.30;;
12122;SDS011;6125;59.628;17.852;2023-02-02T01:49:00;0.47;;;0.47;;
12122;SDS011;6125;59.628;17.852;2023-02-02T01:51:33;0.40;;;0.40;;
12122;SDS011;6125;59.628;17.852;2023-02-02T01:54:13;1.23;;;0.77;;
12122;SDS011;6125;59.628;17.852;2023-02-02T01:56:45;0.47;;;0.43;;
12122;SDS011;6125;59.628;17.852;2023-02-02T01:59:16;0.83;;;0.60;;
12122;SDS011;6125;59.628;17.852;2023-02-02T02:01:45;0.50;;;0.50;;
12122;SDS011;6125;59.628;17.852;2023-02-02T02:04:22;1.93;;;0.70;;
12122;SDS011;6125;59.628;17.852;2023-02-02T02:06:51;0.80;;;0.63;;
12122;SDS011;6125;59.628;17.852;2023-02-02T02:09:19;0.70;;;0.50;;
12122;SDS011;6125;59.628;17.852;2023-02-02T02:11:46;0.80;;;0.67;;
12122;SDS011;6125;59.628;17.852;2023-02-02T02:14:17;0.83;;;0.63;;
12122;SDS011;6125;59.628;17.852;2023-02-02T02:17:06;0.47;;;0.47;;
12122;SDS011;6125;59.628;17.852;2023-02-02T02:23:14;0.60;;;0.60;;
12122;SDS011;6125;59.628;17.852;2023-02-02T02:26:20;0.40;;;0.40;;
12122;SDS011;6125;59.628;17.852;2023-02-02T02:29:16;0.93;;;0.70;;
12122;SDS011;6125;59.628;17.852;2023-02-02T02:32:10;0.63;;;0.50;;
12122;SDS011;6125;59.628;17.852;2023-02-02T02:34:51;1.17;;;0.60;;
12122;SDS011;6125;59.628;17.852;2023-02-02T02:37:24;0.73;;;0.70;;
12122;SDS011;6125;59.628;17.852;2023-02-02T02:39:56;0.70;;;0.70;;
12122;SDS011;6125;59.628;17.852;2023-02-02T02:42:29;1.70;;;0.60;;
12122;SDS011;6125;59.628;17.852;2023-02-02T02:45:00;0.50;;;0.50;;
12122;SDS011;6125;59.628;17.852;2023-02-02T02:47:31;1.03;;;0.93;;
12122;SDS011;6125;59.628;17.852;2023-02-02T02:50:00;1.33;;;0.90;;
12122;SDS011;6125;59.628;17.852;2023-02-02T02:52:27;0.63;;;0.60;;
12122;SDS011;6125;59.628;17.852;2023-02-02T02:54:54;1.47;;;0.77;;
12122;SDS011;6125;59.628;17.852;2023-02-02T02:57:28;1.10;;;0.80;;
12122;SDS011;6125;59.628;17.852;2023-02-02T03:00:17;1.03;;;0.93;;
12122;SDS011;6125;59.628;17.852;2023-02-02T03:03:00;2.10;;;1.20;;
12122;SDS011;6125;59.628;17.852;2023-02-02T03:05:36;2.27;;;1.03;;
12122;SDS011;6125;59.628;17.852;2023-02-02T03:08:11;2.77;;;1.07;;
12122;SDS011;6125;59.628;17.852;2023-02-02T03:10:43;1.50;;;1.17;;
12122;SDS011;6125;59.628;17.852;2023-02-02T03:13:12;1.03;;;0.90;;
12122;SDS011;6125;59.628;17.852;2023-02-02T03:15:41;0.80;;;0.80;;
12122;SDS011;6125;59.628;17.852;2023-02-02T03:18:10;2.07;;;1.23;;
12122;SDS011;6125;59.628;17.852;2023-02-02T03:20:38;3.70;;;1.20;;
12122;SDS011;6125;59.628;17.852;2023-02-02T03:23:06;1.83;;;1.30;;
12122;SDS011;6125;59.628;17.852;2023-02-02T03:25:33;2.00;;;1.20;;
12122;SDS011;6125;59.628;17.852;2023-02-02T03:28:00;2.87;;;1.37;;
12122;SDS011;6125;59.628;17.852;2023-02-02T03:30:30;2.13;;;1.40;;
12122;SDS011;6125;59.628;17.852;2023-02-02T03:33:03;2.50;;;1.60;;
12122;SDS011;6125;59.628;17.852;2023-02-02T03:35:34;2.13;;;1.33;;
12122;SDS011;6125;59.628;17.852;2023-02-02T03:38:01;2.93;;;1.80;;
12122;SDS011;6125;59.628;17.852;2023-02-02T03:40:31;3.17;;;1.67;;
12122;SDS011;6125;59.628;17.852;2023-02-02T03:42:59;1.80;;;1.30;;
12122;SDS011;6125;59.628;17.852;2023-02-02T03:45:27;2.60;;;1.43;;
12122;SDS011;6125;59.628;17.852;2023-02-02T03:47:54;1.40;;;1.30;;
12122;SDS011;6125;59.628;17.852;2023-02-02T03:50:22;2.00;;;1.40;;
12122;SDS011;6125;59.628;17.852;2023-02-02T03:52:57;1.87;;;1.27;;
12122;SDS011;6125;59.628;17.852;2023-02-02T03:55:25;1.53;;;1.43;;
12122;SDS011;6125;59.628;17.852;2023-02-02T03:57:53;2.20;;;1.40;;
12122;SDS011;6125;59.628;17.852;2023-02-02T04:00:21;4.00;;;1.57;;
12122;SDS011;6125;59.628;17.852;2023-02-02T04:02:50;3.20;;;1.50;;
12122;SDS011;6125;59.628;17.852;2023-02-02T04:05:18;2.13;;;1.27;;
12122;SDS011;6125;59.628;17.852;2023-02-02T04:07:45;2.80;;;1.13;;
12122;SDS011;6125;59.628;17.852;2023-02-02T04:10:20;3.87;;;1.70;;
12122;SDS011;6125;59.628;17.852;2023-02-02T04:12:51;1.40;;;1.20;;
12122;SDS011;6125;59.628;17.852;2023-02-02T04:15:19;2.50;;;1.47;;
12122;SDS011;6125;59.628;17.852;2023-02-02T04:17:47;1.27;;;1.10;;
12122;SDS011;6125;59.628;17.852;2023-02-02T04:20:14;1.73;;;1.17;;
12122;SDS011;6125;59.628;17.852;2023-02-02T04:22:42;2.37;;;1.20;;
12122;SDS011;6125;59.628;17.852;2023-02-02T04:25:09;1.63;;;1.27;;
12122;SDS011;6125;59.628;17.852;2023-02-02T04:27:37;3.23;;;1.30;;
12122;SDS011;6125;59.628;17.852;2023-02-02T04:30:05;2.47;;;1.40;;
12122;SDS011;6125;59.628;17.852;2023-02-02T04:32:33;1.90;;;1.20;;
12122;SDS011;6125;59.628;17.852;2023-02-02T04:35:00;5.67;;;1.53;;
12122;SDS011;6125;59.628;17.852;2023-02-02T04:37:28;2.17;;;1.43;;
12122;SDS011;6125;59.628;17.852;2023-02-02T04:39:57;3.00;;;1.33;;
12122;SDS011;6125;59.628;17.852;2023-02-02T04:42:24;1.40;;;1.30;;
12122;SDS011;6125;59.628;17.852;2023-02-02T04:44:55;2.17;;;1.50;;
12122;SDS011;6125;59.628;17.852;2023-02-02T04:47:23;3.57;;;1.60;;
12122;SDS011;6125;59.628;17.852;2023-02-02T04:49:51;2.00;;;1.20;;
12122;SDS011;6125;59.628;17.852;2023-02-02T04:52:18;3.13;;;1.47;;
12122;SDS011;6125;59.628;17.852;2023-02-02T04:54:45;4.27;;;1.43;;
12122;SDS011;6125;59.628;17.852;2023-02-02T04:57:12;2.30;;;1.43;;
12122;SDS011;6125;59.628;17.852;2023-02-02T04:59:39;1.87;;;1.20;;
12122;SDS011;6125;59.628;17.852;2023-02-02T05:02:07;3.03;;;1.47;;
12122;SDS011;6125;59.628;17.852;2023-02-02T05:04:34;1.80;;;1.30;;
12122;SDS011;6125;59.628;17.852;2023-02-02T05:07:01;3.70;;;1.47;;
12122;SDS011;6125;59.628;17.852;2023-02-02T05:09:29;2.00;;;1.20;;
12122;SDS011;6125;59.628;17.852;2023-02-02T05:11:59;1.60;;;1.00;;
12122;SDS011;6125;59.628;17.852;2023-02-02T05:14:26;1.30;;;1.20;;
12122;SDS011;6125;59.628;17.852;2023-02-02T05:16:54;2.90;;;1.50;;
12122;SDS011;6125;59.628;17.852;2023-02-02T05:19:23;1.40;;;1.30;;
12122;SDS011;6125;59.628;17.852;2023-02-02T05:21:50;3.63;;;1.10;;
12122;SDS011;6125;59.628;17.852;2023-02-02T05:24:18;1.27;;;1.00;;
12122;SDS011;6125;59.628;17.852;2023-02-02T05:26:45;2.43;;;0.93;;
12122;SDS011;6125;59.628;17.852;2023-02-02T05:29:17;2.67;;;1.20;;
12122;SDS011;6125;59.628;17.852;2023-02-02T05:31:44;6.10;;;1.13;;
12122;SDS011;6125;59.628;17.852;2023-02-02T05:34:11;0.60;;;0.60;;
12122;SDS011;6125;59.628;17.852;2023-02-02T05:36:43;1.57;;;1.00;;
12122;SDS011;6125;59.628;17.852;2023-02-02T05:39:10;1.20;;;1.10;;
12122;SDS011;6125;59.628;17.852;2023-02-02T05:41:37;0.87;;;0.87;;
12122;SDS011;6125;59.628;17.852;2023-02-02T05:44:08;1.57;;;1.07;;
12122;SDS011;6125;59.628;17.852;2023-02-02T05:46:38;2.67;;;1.20;;
12122;SDS011;6125;59.628;17.852;2023-02-02T05:49:07;2.90;;;1.10;;
12122;SDS011;6125;59.628;17.852;2023-02-02T05:51:41;1.20;;;1.10;;
12122;SDS011;6125;59.628;17.852;2023-02-02T05:54:11;1.40;;;1.00;;
12122;SDS011;6125;59.628;17.852;2023-02-02T05:56:46;2.10;;;1.20;;
12122;SDS011;6125;59.628;17.852;2023-02-02T05:59:13;1.63;;;1.13;;
12122;SDS011;6125;59.628;17.852;2023-02-02T06:01:43;1.30;;;1.20;;
12122;SDS011;6125;59.628;17.852;2023-02-02T06:04:10;1.10;;;0.80;;
12122;SDS011;6125;59.628;17.852;2023-02-02T06:06:37;2.47;;;1.37;;
12122;SDS011;6125;59.628;17.852;2023-02-02T06:09:08;0.93;;;0.83;;
12122;SDS011;6125;59.628;17.852;2023-02-02T06:11:41;1.70;;;1.00;;
12122;SDS011;6125;59.628;17.852;2023-02-02T06:14:10;0.90;;;0.90;;
12122;SDS011;6125;59.628;17.852;2023-02-02T06:16:37;1.00;;;0.80;;
12122;SDS011;6125;59.628;17.852;2023-02-02T06:19:05;3.87;;;1.30;;
12122;SDS011;6125;59.628;17.852;2023-02-02T06:21:35;1.37;;;1.20;;
12122;SDS011;6125;59.628;17.852;2023-02-02T06:24:02;0.90;;;0.90;;
12122;SDS011;6125;59.628;17.852;2023-02-02T06:26:31;1.13;;;0.87;;
12122;SDS011;6125;59.628;17.852;2023-02-02T06:28:58;1.80;;;0.80;;
12122;SDS011;6125;59.628;17.852;2023-02-02T06:31:29;1.73;;;1.20;;
12122;SDS011;6125;59.628;17.852;2023-02-02T06:33:58;3.60;;;1.00;;
12122;SDS011;6125;59.628;17.852;2023-02-02T06:36:26;2.40;;;1.10;;
12122;SDS011;6125;59.628;17.852;2023-02-02T06:38:53;1.53;;;1.20;;
12122;SDS011;6125;59.628;17.852;2023-02-02T06:41:22;3.00;;;1.43;;
12122;SDS011;6125;59.628;17.852;2023-02-02T06:43:51;1.43;;;1.17;;
12122;SDS011;6125;59.628;17.852;2023-02-02T06:46:18;1.43;;;1.10;;
12122;SDS011;6125;59.628;17.852;2023-02-02T06:48:45;1.63;;;1.20;;
12122;SDS011;6125;59.628;17.852;2023-02-02T06:51:13;1.57;;;1.20;;
12122;SDS011;6125;59.628;17.852;2023-02-02T06:53:41;1.93;;;1.30;;
12122;SDS011;6125;59.628;17.852;2023-02-02T06:56:10;3.47;;;1.00;;
12122;SDS011;6125;59.628;17.852;2023-02-02T06:58:38;1.20;;;1.10;;
12122;SDS011;6125;59.628;17.852;2023-02-02T07:01:08;2.67;;;1.10;;
12122;SDS011;6125;59.628;17.852;2023-02-02T07:03:38;4.40;;;1.30;;
12122;SDS011;6125;59.628;17.852;2023-02-02T07:06:09;1.30;;;1.20;;
12122;SDS011;6125;59.628;17.852;2023-02-02T07:08:37;2.93;;;1.40;;
12122;SDS011;6125;59.628;17.852;2023-02-02T07:11:04;1.87;;;0.83;;
12122;SDS011;6125;59.628;17.852;2023-02-02T07:13:32;2.20;;;1.13;;
12122;SDS011;6125;59.628;17.852;2023-02-02T07:15:59;1.17;;;1.07;;
12122;SDS011;6125;59.628;17.852;2023-02-02T07:18:31;1.27;;;1.17;;
12122;SDS011;6125;59.628;17.852;2023-02-02T07:20:58;2.63;;;1.03;;
12122;SDS011;6125;59.628;17.852;2023-02-02T07:23:25;1.23;;;1.13;;
12122;SDS011;6125;59.628;17.852;2023-02-02T07:26:04;4.30;;;1.30;;
12122;SDS011;6125;59.628;17.852;2023-02-02T07:28:35;1.20;;;1.00;;
12122;SDS011;6125;59.628;17.852;2023-02-02T07:31:11;1.43;;;1.07;;
12122;SDS011;6125;59.628;17.852;2023-02-02T07:33:41;1.77;;;1.30;;
12122;SDS011;6125;59.628;17.852;2023-02-02T07:36:09;2.13;;;1.20;;
12122;SDS011;6125;59.628;17.852;2023-02-02T07:38:37;1.00;;;0.93;;
12122;SDS011;6125;59.628;17.852;2023-02-02T07:41:04;1.20;;;1.03;;
12122;SDS011;6125;59.628;17.852;2023-02-02T07:43:32;1.53;;;1.43;;
12122;SDS011;6125;59.628;17.852;2023-02-02T07:46:02;2.23;;;1.20;;
12122;SDS011;6125;59.628;17.852;2023-02-02T07:48:32;2.37;;;1.10;;
12122;SDS011;6125;59.628;17.852;2023-02-02T07:51:02;1.77;;;1.10;;
12122;SDS011;6125;59.628;17.852;2023-02-02T07:53:33;1.57;;;1.37;;
12122;SDS011;6125;59.628;17.852;2023-02-02T07:56:07;3.10;;;1.23;;
12122;SDS011;6125;59.628;17.852;2023-02-02T07:58:38;2.77;;;1.40;;
12122;SDS011;6125;59.628;17.852;2023-02-02T08:01:06;3.90;;;1.90;;
12122;SDS011;6125;59.628;17.852;2023-02-02T08:03:39;2.57;;;1.73;;
12122;SDS011;6125;59.628;17.852;2023-02-02T08:06:09;5.27;;;2.33;;
12122;SDS011;6125;59.628;17.852;2023-02-02T08:08:38;2.07;;;1.43;;
12122;SDS011;6125;59.628;17.852;2023-02-02T08:11:15;2.63;;;1.40;;
12122;SDS011;6125;59.628;17.852;2023-02-02T08:13:47;1.40;;;1.30;;
12122;SDS011;6125;59.628;17.852;2023-02-02T08:16:15;3.97;;;1.23;;
12122;SDS011;6125;59.628;17.852;2023-02-02T08:18:44;1.50;;;1.40;;
12122;SDS011;6125;59.628;17.852;2023-02-02T08:21:16;3.17;;;1.60;;
12122;SDS011;6125;59.628;17.852;2023-02-02T08:23:44;3.07;;;1.60;;
12122;SDS011;6125;59.628;17.852;2023-02-02T08:26:12;5.17;;;1.97;;
12122;SDS011;6125;59.628;17.852;2023-02-02T08:28:43;2.50;;;1.50;;
12122;SDS011;6125;59.628;17.852;2023-02-02T08:31:13;2.73;;;1.70;;
12122;SDS011;6125;59.628;17.852;2023-02-02T08:33:42;2.17;;;1.50;;
12122;SDS011;6125;59.628;17.852;2023-02-02T08:36:10;2.47;;;1.90;;
12122;SDS011;6125;59.628;17.852;2023-02-02T08:38:39;1.63;;;1.33;;
12122;SDS011;6125;59.628;17.852;2023-02-02T08:41:07;4.50;;;1.50;;
12122;SDS011;6125;59.628;17.852;2023-02-02T08:43:35;3.63;;;1.93;;
12122;SDS011;6125;59.628;17.852;2023-02-02T08:46:04;2.60;;;1.63;;
12122;SDS011;6125;59.628;17.852;2023-02-02T08:48:32;1.87;;;1.47;;
12122;SDS011;6125;59.628;17.852;2023-02-02T08:51:00;1.77;;;1.30;;
12122;SDS011;6125;59.628;17.852;2023-02-02T08:53:29;1.37;;;1.23;;
12122;SDS011;6125;59.628;17.852;2023-02-02T08:55:58;3.90;;;2.00;;
12122;SDS011;6125;59.628;17.852;2023-02-02T08:58:26;2.00;;;1.60;;
12122;SDS011;6125;59.628;17.852;2023-02-02T09:00:54;2.67;;;1.73;;
12122;SDS011;6125;59.628;17.852;2023-02-02T09:03:21;1.80;;;1.60;;
12122;SDS011;6125;59.628;17.852;2023-02-02T09:05:48;2.70;;;1.70;;
12122;SDS011;6125;59.628;17.852;2023-02-02T09:08:15;1.30;;;1.20;;
12122;SDS011;6125;59.628;17.852;2023-02-02T09:10:42;3.37;;;1.33;;
12122;SDS011;6125;59.628;17.852;2023-02-02T09:13:10;2.97;;;1.37;;
12122;SDS011;6125;59.628;17.852;2023-02-02T09:15:40;2.20;;;1.40;;
12122;SDS011;6125;59.628;17.852;2023-02-02T09:18:07;1.60;;;1.47;;
12122;SDS011;6125;59.628;17.852;2023-02-02T09:20:36;1.30;;;1.20;;
12122;SDS011;6125;59.628;17.852;2023-02-02T09:23:03;1.33;;;1.17;;
12122;SDS011;6125;59.628;17.852;2023-02-02T09:25:30;3.00;;;1.37;;
12122;SDS011;6125;59.628;17.852;2023-02-02T09:27:57;2.40;;;1.30;;
12122;SDS011;6125;59.628;17.852;2023-02-02T09:30:32;1.53;;;1.10;;
12122;SDS011;6125;59.628;17.852;2023-02-02T09:32:59;1.37;;;0.97;;
12122;SDS011;6125;59.628;17.852;2023-02-02T09:35:26;1.13;;;0.93;;
12122;SDS011;6125;59.628;17.852;2023-02-02T09:37:53;1.10;;;0.90;;
12122;SDS011;6125;59.628;17.852;2023-02-02T09:40:22;1.20;;;0.80;;
12122;SDS011;6125;59.628;17.852;2023-02-02T09:42:54;0.80;;;0.80;;
12122;SDS011;6125;59.628;17.852;2023-02-02T09:45:35;2.97;;;1.20;;
12122;SDS011;6125;59.628;17.852;2023-02-02T09:48:14;1.10;;;1.00;;
12122;SDS011;6125;59.628;17.852;2023-02-02T09:50:51;1.70;;;0.87;;
12122;SDS011;6125;59.628;17.852;2023-02-02T09:53:26;1.23;;;0.60;;
12122;SDS011;6125;59.628;17.852;2023-02-02T09:56:04;2.43;;;0.87;;
12122;SDS011;6125;59.628;17.852;2023-02-02T09:58:35;1.07;;;0.67;;
12122;SDS011;6125;59.628;17.852;2023-02-02T10:01:08;0.63;;;0.63;;
12122;SDS011;6125;59.628;17.852;2023-02-02T10:03:48;0.60;;;0.60;;
12122;SDS011;6125;59.628;17.852;2023-02-02T10:06:27;1.17;;;0.97;;
12122;SDS011;6125;59.628;17.852;2023-02-02T10:09:03;0.57;;;0.57;;
12122;SDS011;6125;59.628;17.852;2023-02-02T10:11:44;1.03;;;0.63;;
12122;SDS011;6125;59.628;17.852;2023-02-02T10:14:17;0.77;;;0.77;;
12122;SDS011;6125;59.628;17.852;2023-02-02T10:16:53;1.67;;;0.77;;
12122;SDS011;6125;59.628;17.852;2023-02-02T10:19:22;0.50;;;0.50;;
12122;SDS011;6125;59.628;17.852;2023-02-02T10:21:56;0.60;;;0.60;;
12122;SDS011;6125;59.628;17.852;2023-02-02T10:24:32;1.00;;;0.80;;
12122;SDS011;6125;59.628;17.852;2023-02-02T10:27:02;1.33;;;1.07;;
12122;SDS011;6125;59.628;17.852;2023-02-02T10:29:32;1.97;;;1.27;;
12122;SDS011;6125;59.628;17.852;2023-02-02T10:32:12;2.40;;;1.30;;
12122;SDS011;6125;59.628;17.852;2023-02-02T10:34:52;1.13;;;1.03;;
12122;SDS011;6125;59.628;17.852;2023-02-02T10:37:42;1.77;;;1.23;;
12122;SDS011;6125;59.628;17.852;2023-02-02T10:40:20;1.90;;;1.17;;
12122;SDS011;6125;59.628;17.852;2023-02-02T10:43:06;1.47;;;1.20;;
12122;SDS011;6125;59.628;17.852;2023-02-02T10:46:10;1.43;;;0.70;;
12122;SDS011;6125;59.628;17.852;2023-02-02T10:48:42;0.73;;;0.73;;
12122;SDS011;6125;59.628;17.852;2023-02-02T10:51:16;1.23;;;1.10;;
12122;SDS011;6125;59.628;17.852;2023-02-02T10:53:48;0.87;;;0.80;;
12122;SDS011;6125;59.628;17.852;2023-02-02T10:56:17;1.10;;;1.00;;
12122;SDS011;6125;59.628;17.852;2023-02-02T10:58:51;0.67;;;0.67;;
12122;SDS011;6125;59.628;17.852;2023-02-02T11:01:23;1.23;;;1.10;;
12122;SDS011;6125;59.628;17.852;2023-02-02T11:03:53;1.10;;;1.00;;
12122;SDS011;6125;59.628;17.852;2023-02-02T11:06:34;0.77;;;0.77;;
12122;SDS011;6125;59.628;17.852;2023-02-02T11:09:20;1.90;;;0.60;;
12122;SDS011;6125;59.628;17.852;2023-02-02T11:11:50;0.80;;;0.80;;
12122;SDS011;6125;59.628;17.852;2023-02-02T11:14:25;0.70;;;0.70;;
12122;SDS011;6125;59.628;17.852;2023-02-02T11:17:03;3.17;;;0.87;;
12122;SDS011;6125;59.628;17.852;2023-02-02T11:19:33;1.33;;;0.93;;
12122;SDS011;6125;59.628;17.852;2023-02-02T11:22:03;1.67;;;0.73;;
12122;SDS011;6125;59.628;17.852;2023-02-02T11:24:33;0.77;;;0.77;;
12122;SDS011;6125;59.628;17.852;2023-02-02T11:27:13;0.97;;;0.80;;
12122;SDS011;6125;59.628;17.852;2023-02-02T11:29:45;1.60;;;0.90;;
12122;SDS011;6125;59.628;17.852;2023-02-02T11:32:24;1.10;;;0.80;;
12122;SDS011;6125;59.628;17.852;2023-02-02T11:35:12;0.93;;;0.80;;
12122;SDS011;6125;59.628;17.852;2023-02-02T11:37:51;0.80;;;0.80;;
12122;SDS011;6125;59.628;17.852;2023-02-02T11:40:25;0.90;;;0.80;;
12122;SDS011;6125;59.628;17.852;2023-02-02T11:42:56;0.77;;;0.77;;
12122;SDS011;6125;59.628;17.852;2023-02-02T11:45:27;1.03;;;0.80;;
12122;SDS011;6125;59.628;17.852;2023-02-02T11:48:03;2.13;;;1.33;;
12122;SDS011;6125;59.628;17.852;2023-02-02T11:50:34;1.60;;;1.03;;
12122;SDS011;6125;59.628;17.852;2023-02-02T11:53:10;1.97;;;1.00;;
12122;SDS011;6125;59.628;17.852;2023-02-02T11:55:50;0.70;;;0.70;;
12122;SDS011;6125;59.628;17.852;2023-02-02T11:58:19;1.00;;;0.83;;
12122;SDS011;6125;59.628;17.852;2023-02-02T12:00:53;0.80;;;0.80;;
12122;SDS011;6125;59.628;17.852;2023-02-02T12:03:25;1.87;;;0.73;;
12122;SDS011;6125;59.628;17.852;2023-02-02T12:05:57;0.90;;;0.90;;
12122;SDS011;6125;59.628;17.852;2023-02-02T12:08:26;0.93;;;0.60;;
12122;SDS011;6125;59.628;17.852;2023-02-02T12:11:03;0.97;;;0.87;;
12122;SDS011;6125;59.628;17.852;2023-02-02T12:13:47;2.57;;;0.80;;
12122;SDS011;6125;59.628;17.852;2023-02-02T12:16:25;1.30;;;0.80;;
12122;SDS011;6125;59.628;17.852;2023-02-02T12:19:36;1.30;;;1.00;;
12122;SDS011;6125;59.628;17.852;2023-02-02T12:22:25;1.43;;;1.10;;
12122;SDS011;6125;59.628;17.852;2023-02-02T12:25:07;1.73;;;1.17;;
12122;SDS011;6125;59.628;17.852;2023-02-02T12:27:53;1.23;;;1.03;;
12122;SDS011;6125;59.628;17.852;2023-02-02T12:30:29;2.83;;;1.13;;
12122;SDS011;6125;59.628;17.852;2023-02-02T12:33:05;0.70;;;0.70;;
12122;SDS011;6125;59.628;17.852;2023-02-02T12:35:46;1.73;;;0.90;;
12122;SDS011;6125;59.628;17.852;2023-02-02T12:38:27;2.83;;;1.10;;
12122;SDS011;6125;59.628;17.852;2023-02-02T12:41:16;2.37;;;0.90;;
12122;SDS011;6125;59.628;17.852;2023-02-02T12:43:55;1.17;;;1.07;;
12122;SDS011;6125;59.628;17.852;2023-02-02T12:46:36;2.43;;;1.00;;
12122;SDS011;6125;59.628;17.852;2023-02-02T12:49:21;1.33;;;1.17;;
12122;SDS011;6125;59.628;17.852;2023-02-02T12:52:13;1.13;;;0.90;;
12122;SDS011;6125;59.628;17.852;2023-02-02T12:54:54;1.23;;;0.80;;
12122;SDS011;6125;59.628;17.852;2023-02-02T12:57:45;1.20;;;1.10;;
12122;SDS011;6125;59.628;17.852;2023-02-02T13:06:05;1.07;;;0.97;;
12122;SDS011;6125;59.628;17.852;2023-02-02T13:08:48;0.97;;;0.73;;
12122;SDS011;6125;59.628;17.852;2023-02-02T13:11:30;3.23;;;0.63;;
12122;SDS011;6125;59.628;17.852;2023-02-02T13:14:06;1.53;;;1.10;;
12122;SDS011;6125;59.628;17.852;2023-02-02T13:16:38;0.80;;;0.80;;
12122;SDS011;6125;59.628;17.852;2023-02-02T13:19:14;2.37;;;0.73;;
12122;SDS011;6125;59.628;17.852;2023-02-02T13:21:49;1.00;;;1.00;;
12122;SDS011;6125;59.628;17.852;2023-02-02T13:24:23;0.90;;;0.90;;
12122;SDS011;6125;59.628;17.852;2023-02-02T13:26:56;0.80;;;0.80;;
12122;SDS011;6125;59.628;17.852;2023-02-02T13:29:29;1.83;;;0.77;;
12122;SDS011;6125;59.628;17.852;2023-02-02T13:32:02;1.87;;;0.87;;
12122;SDS011;6125;59.628;17.852;2023-02-02T13:34:39;1.33;;;1.23;;
12122;SDS011;6125;59.628;17.852;2023-02-02T13:37:13;0.83;;;0.83;;
12122;SDS011;6125;59.628;17.852;2023-02-02T13:39:48;1.17;;;1.07;;
12122;SDS011;6125;59.628;17.852;2023-02-02T13:42:28;2.47;;;1.30;;
12122;SDS011;6125;59.628;17.852;2023-02-02T13:45:02;2.80;;;1.57;;
12122;SDS011;6125;59.628;17.852;2023-02-02T13:47:44;2.13;;;1.17;;
12122;SDS011;6125;59.628;17.852;2023-02-02T13:50:19;3.70;;;1.10;;
12122;SDS011;6125;59.628;17.852;2023-02-02T13:53:00;3.90;;;1.63;;
12122;SDS011;6125;59.628;17.852;2023-02-02T13:55:53;1.77;;;1.40;;
12122;SDS011;6125;59.628;17.852;2023-02-02T13:58:36;1.37;;;1.20;;
12122;SDS011;6125;59.628;17.852;2023-02-02T14:01:18;1.17;;;1.07;;
12122;SDS011;6125;59.628;17.852;2023-02-02T14:03:50;0.80;;;0.80;;
12122;SDS011;6125;59.628;17.852;2023-02-02T14:06:20;1.33;;;1.20;;
12122;SDS011;6125;59.628;17.852;2023-02-02T14:08:50;1.10;;;1.00;;
12122;SDS011;6125;59.628;17.852;2023-02-02T14:11:21;1.33;;;0.83;;
12122;SDS011;6125;59.628;17.852;2023-02-02T14:13:52;2.33;;;1.50;;
12122;SDS011;6125;59.628;17.852;2023-02-02T14:16:42;2.40;;;1.33;;
12122;SDS011;6125;59.628;17.852;2023-02-02T14:19:14;3.03;;;1.40;;
12122;SDS011;6125;59.628;17.852;2023-02-02T14:28:39;1.23;;;1.10;;
12122;SDS011;6125;59.628;17.852;2023-02-02T14:31:29;0.80;;;0.80;;
12122;SDS011;6125;59.628;17.852;2023-02-02T14:34:19;1.43;;;0.70;;
12122;SDS011;6125;59.628;17.852;2023-02-02T14:36:57;1.30;;;0.97;;
12122;SDS011;6125;59.628;17.852;2023-02-02T14:39:39;1.10;;;1.00;;
12122;SDS011;6125;59.628;17.852;2023-02-02T14:42:38;5.03;;;1.20;;
12122;SDS011;6125;59.628;17.852;2023-02-02T14:45:28;1.37;;;1.10;;
12122;SDS011;6125;59.628;17.852;2023-02-02T14:47:59;1.70;;;1.53;;
12122;SDS011;6125;59.628;17.852;2023-02-02T14:50:41;2.10;;;1.67;;
12122;SDS011;6125;59.628;17.852;2023-02-02T14:55:59;2.23;;;2.03;;
12122;SDS011;6125;59.628;17.852;2023-02-02T14:58:29;6.17;;;2.97;;
12122;SDS011;6125;59.628;17.852;2023-02-02T15:01:04;6.47;;;2.40;;
12122;SDS011;6125;59.628;17.852;2023-02-02T15:03:46;4.70;;;2.27;;
12122;SDS011;6125;59.628;17.852;2023-02-02T15:06:29;3.67;;;1.70;;
12122;SDS011;6125;59.628;17.852;2023-02-02T15:14:54;3.50;;;2.00;;
12122;SDS011;6125;59.628;17.852;2023-02-02T15:17:26;2.43;;;1.80;;
12122;SDS011;6125;59.628;17.852;2023-02-02T15:20:05;6.00;;;2.67;;
12122;SDS011;6125;59.628;17.852;2023-02-02T15:22:40;5.53;;;3.10;;
12122;SDS011;6125;59.628;17.852;2023-02-02T15:25:12;3.80;;;1.97;;
12122;SDS011;6125;59.628;17.852;2023-02-02T15:27:45;5.60;;;2.70;;
12122;SDS011;6125;59.628;17.852;2023-02-02T15:30:23;23.67;;;10.20;;
12122;SDS011;6125;59.628;17.852;2023-02-02T15:32:54;16.70;;;7.43;;
12122;SDS011;6125;59.628;17.852;2023-02-02T15:35:27;12.97;;;4.70;;
12122;SDS011;6125;59.628;17.852;2023-02-02T15:37:58;15.43;;;6.73;;
12122;SDS011;6125;59.628;17.852;2023-02-02T15:40:30;7.70;;;4.03;;
12122;SDS011;6125;59.628;17.852;2023-02-02T15:42:58;5.63;;;2.20;;
12122;SDS011;6125;59.628;17.852;2023-02-02T15:45:33;3.17;;;1.90;;